Grand Canyon National Park, AZ

12:53 AM MST on Augusti 25, 2016 (GMT -0700)
KAZGRAND3 | | Change Station

Elev 6991 ft 36.05 °N, 112.12 °W | Updated 3 minutes ago

Clear
Klart
56.4 °F
Feels Like 56.4 °F
N
0.0
Vind Växlande Vind from SO
Gusts 0.0 miles/tim

Idag
High -- | Low -- °F
--% Chance of Precip.
Yesterday
High -- | Low -- °F
Precip. -- tum
Lufttryck 30.04 tum
Sikt 10.0 miles
Molnigt Klart
Daggpunkt 42 °F
Luftfuktighet 59%
Rainfall 0.00 tum
Snow Depth Not available.
5:55 AM 7:05 PM
Tredje kvarteret, 48% visible
METAR KGCN 250654Z 00000KT 10SM CLR 11/06 A3030 RMK AO2 SLP171 T01060061 402720078
Lufttryck 30.04 tum
Sikt 10.0 miles
Molnigt Klart
Daggpunkt 42 °F
Luftfuktighet 59%
Rainfall 0.00 tum
Snow Depth Not available.
5:55 AM 7:05 PM
Tredje kvarteret, 48% visible
METAR KGCN 250654Z 00000KT 10SM CLR 11/06 A3030 RMK AO2 SLP171 T01060061 402720078

10-Day Weather Forecast

Almanac

Astronomi

Aug. 25, 2016 Rise Set
Actual Time
Civil Twilight
Nautical Twilight
Astronomical Twilight
Månen
Length Of Visible Light
Dagens längd
Tomorrow will be .
, % of the Moon is Illuminated

Today's Extremes

State Highs State Lows

Community

WunderPhotos

Upload Photos

1,934,814 photos uploaded!

WunderBlog® & News

Nearby

Air Quality

  Air Quality AQ Index Pollutant
Not available.

Snödjup

Station Depth Elevation

Earthquake Activity

Stad Distance Mag. Time & Date
Minimum magnitude displayed is 2.5.

Coastal Water Temperatures

Plats Temperatur

Stations

Nearby Weather Stations

Station Location Temp Vindavkylning Daggpunkt Luftfuktighet Vind Precip. Elev Uppdaterad Type
                   

Watches & Warnings

There are currently no watches in effect.